Time;durP1;ratioP1;P1;durP2;ratioP2;P2;SDS_P1;SDS_P2;PMS_P1;PMS_P2;Temp;Humidity;BMP_temperature;BMP_pressure;BME280_temperature;BME280_humidity;BME280_pressure;Samples;Min_cycle;Max_cycle;Signal;HPM_P1;HPM_P2
2021/03/21 00:00:50;;;;;;;75.70;36.10;;;5.50;99.90;;;;;;5091199;28;20046;-72
2021/03/21 00:03:18;;;;;;;75.38;36.03;;;5.50;99.90;;;;;;5091328;28;20031;-74
2021/03/21 00:05:44;;;;;;;74.05;35.50;;;5.40;99.90;;;;;;5091291;28;20025;-71
2021/03/21 00:08:14;;;;;;;75.68;36.20;;;5.40;99.90;;;;;;5091348;28;20020;-71
2021/03/21 00:10:40;;;;;;;73.43;35.30;;;5.40;99.90;;;;;;5087812;28;20094;-75
2021/03/21 00:13:06;;;;;;;74.85;35.70;;;5.40;99.90;;;;;;5091069;28;20038;-71
2021/03/21 00:15:32;;;;;;;74.65;35.70;;;5.40;99.90;;;;;;5091035;28;20032;-72
2021/03/21 00:17:59;;;;;;;73.57;35.22;;;5.40;99.90;;;;;;5088833;28;20485;-71
2021/03/21 00:20:33;;;;;;;75.80;36.35;;;5.40;99.90;;;;;;5089276;28;20034;-70
2021/03/21 00:23:01;;;;;;;73.65;35.30;;;5.30;99.90;;;;;;5088088;28;20043;-70
2021/03/21 00:25:29;;;;;;;72.00;34.72;;;5.20;99.90;;;;;;5089024;28;20044;-70
2021/03/21 00:27:55;;;;;;;81.82;37.65;;;5.10;99.90;;;;;;5090028;28;20027;-72
2021/03/21 00:30:25;;;;;;;82.63;37.92;;;5.10;99.90;;;;;;5090255;28;20024;-71
2021/03/21 00:32:51;;;;;;;82.13;37.42;;;5.00;99.90;;;;;;5088767;28;20401;-72
2021/03/21 00:35:18;;;;;;;83.30;38.15;;;5.10;99.90;;;;;;5086314;28;20039;-70
2021/03/21 00:37:44;;;;;;;85.13;38.35;;;5.10;99.90;;;;;;5091466;28;20099;-70
2021/03/21 00:40:15;;;;;;;82.50;37.78;;;5.10;99.90;;;;;;5090211;28;20549;-69
2021/03/21 00:42:41;;;;;;;83.43;37.88;;;5.20;99.90;;;;;;5089963;28;20355;-70
2021/03/21 00:45:08;;;;;;;83.30;38.13;;;5.10;99.90;;;;;;5092837;28;20039;-69
2021/03/21 00:47:34;;;;;;;82.22;37.30;;;5.10;99.90;;;;;;5095503;28;20107;-71
2021/03/21 00:50:01;;;;;;;82.53;37.70;;;5.10;99.90;;;;;;5094557;28;20126;-72
2021/03/21 00:52:27;;;;;;;81.28;37.35;;;5.00;99.90;;;;;;5095382;28;20077;-71
2021/03/21 00:54:53;;;;;;;80.70;37.08;;;5.00;99.90;;;;;;5069416;28;20036;-71
2021/03/21 00:57:18;;;;;;;77.30;36.40;;;5.00;99.90;;;;;;5085966;28;20025;-69
2021/03/21 00:59:44;;;;;;;66.07;34.88;;;5.00;99.90;;;;;;5083980;28;20095;-70
2021/03/21 01:02:10;;;;;;;71.50;35.25;;;4.90;99.90;;;;;;5080144;28;20024;-71
2021/03/21 01:04:36;;;;;;;70.55;35.00;;;4.90;99.90;;;;;;5084482;28;20040;-69
2021/03/21 01:07:02;;;;;;;70.80;35.10;;;4.90;99.90;;;;;;5079910;28;20032;-70
2021/03/21 01:09:28;;;;;;;70.07;34.90;;;4.90;99.90;;;;;;5082966;28;20020;-69
2021/03/21 01:11:54;;;;;;;79.47;36.55;;;4.90;99.90;;;;;;5058551;28;20454;-70
2021/03/21 01:14:19;;;;;;;76.50;36.40;;;4.90;99.90;;;;;;5080934;28;20058;-70
2021/03/21 01:16:45;;;;;;;72.78;35.47;;;5.00;99.90;;;;;;5083543;28;20024;-70
2021/03/21 01:19:17;;;;;;;76.97;35.80;;;5.00;99.90;;;;;;5079056;28;20029;-71
2021/03/21 01:21:44;;;;;;;75.15;35.95;;;5.00;99.90;;;;;;5085071;28;20036;-72
2021/03/21 01:24:15;;;;;;;74.32;35.92;;;5.10;99.90;;;;;;5092028;28;20047;-73
2021/03/21 01:26:41;;;;;;;75.38;35.63;;;5.10;99.90;;;;;;5093090;28;20020;-71
2021/03/21 01:29:07;;;;;;;76.82;36.10;;;5.10;99.90;;;;;;5093793;28;20042;-72
2021/03/21 01:31:34;;;;;;;81.13;37.30;;;5.20;99.90;;;;;;5075458;28;20465;-70
2021/03/21 01:34:01;;;;;;;85.28;38.35;;;5.20;99.90;;;;;;5093485;28;20035;-73
2021/03/21 01:36:30;;;;;;;83.35;37.83;;;5.20;99.90;;;;;;5093674;28;20095;-70
2021/03/21 01:38:57;;;;;;;81.07;37.28;;;5.30;99.90;;;;;;5092218;28;20059;-72
2021/03/21 01:41:26;;;;;;;81.38;37.15;;;5.30;99.90;;;;;;5094840;28;20028;-70
2021/03/21 01:43:52;;;;;;;80.38;37.13;;;5.30;99.90;;;;;;5093514;28;20637;-71
2021/03/21 01:46:36;;;;;;;84.40;38.25;;;5.30;99.90;;;;;;5094357;28;20073;-72
2021/03/21 01:49:14;;;;;;;80.00;36.92;;;5.30;99.90;;;;;;5076352;28;20028;-71
2021/03/21 01:51:40;;;;;;;84.88;38.67;;;5.30;99.90;;;;;;5094544;28;20032;-70
2021/03/21 01:54:15;;;;;;;75.45;35.78;;;5.30;99.90;;;;;;5094879;28;20028;-72
2021/03/21 01:56:41;;;;;;;76.90;35.95;;;5.20;99.90;;;;;;5093674;28;20043;-70
2021/03/21 01:59:32;;;;;;;76.25;35.88;;;5.20;99.90;;;;;;5076710;28;20032;-71
2021/03/21 02:02:01;;;;;;;77.47;36.60;;;5.00;99.90;;;;;;5081276;28;20024;-69
2021/03/21 02:04:27;;;;;;;77.60;36.22;;;5.00;99.90;;;;;;5094980;28;20065;-70
2021/03/21 02:07:19;;;;;;;75.57;35.75;;;5.00;99.90;;;;;;5076578;28;20063;-71
2021/03/21 02:09:53;;;;;;;76.25;36.13;;;5.10;99.90;;;;;;5094215;28;20021;-68
2021/03/21 02:12:28;;;;;;;78.65;36.33;;;5.20;99.90;;;;;;5094622;28;20016;-71
2021/03/21 02:15:03;;;;;;;82.40;37.70;;;5.20;99.90;;;;;;5093630;28;20070;-69
2021/03/21 02:17:49;;;;;;;80.05;36.75;;;5.20;99.90;;;;;;5094488;28;20095;-69
2021/03/21 02:21:02;;;;;;;81.70;37.28;;;5.20;99.90;;;;;;5092955;28;20028;-71
2021/03/21 02:24:02;;;;;;;80.38;37.13;;;5.10;99.90;;;;;;5093691;28;20135;-71
2021/03/21 02:26:40;;;;;;;80.93;37.10;;;5.00;99.90;;;;;;5094261;28;20032;-70
2021/03/21 02:29:30;;;;;;;80.22;37.08;;;5.00;99.90;;;;;;5093789;28;20070;-71
2021/03/21 02:32:38;;;;;;;76.95;36.28;;;5.00;99.90;;;;;;5067346;28;20578;-69
2021/03/21 02:35:10;;;;;;;76.60;36.55;;;5.00;99.90;;;;;;5091816;28;20050;-72
2021/03/21 02:38:13;;;;;;;70.45;35.25;;;4.90;99.90;;;;;;5094201;28;20024;-71
2021/03/21 02:40:53;;;;;;;80.00;36.85;;;4.80;99.90;;;;;;5093345;28;20564;-70
2021/03/21 02:43:27;;;;;;;82.00;36.90;;;4.80;99.90;;;;;;5093664;28;20043;-70
2021/03/21 02:45:58;;;;;;;81.32;36.80;;;4.80;99.90;;;;;;5093625;28;20629;-70
2021/03/21 02:48:38;;;;;;;78.07;35.70;;;4.80;99.90;;;;;;5093604;28;20086;-71
2021/03/21 02:51:08;;;;;;;81.10;36.85;;;4.80;99.90;;;;;;5093276;28;20032;-71
2021/03/21 02:53:40;;;;;;;77.60;36.05;;;4.80;99.90;;;;;;5093602;28;20032;-71
2021/03/21 02:56:10;;;;;;;79.10;36.13;;;4.80;99.90;;;;;;5092921;28;20031;-71
2021/03/21 02:58:48;;;;;;;80.75;36.83;;;4.80;99.90;;;;;;5080628;28;20085;-68
2021/03/21 03:01:19;;;;;;;73.32;35.33;;;4.90;99.90;;;;;;5093454;28;20458;-68
2021/03/21 03:03:49;;;;;;;71.30;34.85;;;4.90;99.90;;;;;;5093621;28;20058;-69
2021/03/21 03:06:20;;;;;;;71.45;35.25;;;5.00;99.90;;;;;;5093618;28;20410;-69
2021/03/21 03:08:52;;;;;;;71.00;34.53;;;5.00;99.90;;;;;;5061089;28;20471;-69
2021/03/21 03:11:32;;;;;;;73.15;35.15;;;4.90;99.90;;;;;;5093200;28;20024;-68
2021/03/21 03:14:01;;;;;;;70.70;34.85;;;5.00;99.90;;;;;;5080908;28;20417;-68
2021/03/21 03:16:36;;;;;;;72.57;35.72;;;4.80;99.90;;;;;;5092631;28;20024;-70
2021/03/21 03:19:04;;;;;;;74.30;35.65;;;4.90;99.90;;;;;;5080338;28;20028;-68
2021/03/21 03:21:44;;;;;;;74.43;35.60;;;4.80;99.90;;;;;;5093312;28;20028;-71
2021/03/21 03:24:20;;;;;;;71.82;34.90;;;4.90;99.90;;;;;;5063038;28;20059;-72
2021/03/21 03:26:53;;;;;;;72.03;35.08;;;4.90;99.90;;;;;;5094071;28;20024;-72
2021/03/21 03:29:24;;;;;;;73.68;35.22;;;4.80;99.90;;;;;;5094392;28;20030;-70
2021/03/21 03:31:55;;;;;;;71.72;35.05;;;4.80;99.90;;;;;;5093373;28;20086;-70
2021/03/21 03:34:22;;;;;;;69.97;34.80;;;4.80;99.90;;;;;;5093939;28;20020;-71
2021/03/21 03:36:48;;;;;;;69.03;35.08;;;4.70;99.90;;;;;;5094148;28;20103;-71
2021/03/21 03:39:14;;;;;;;65.93;34.72;;;4.70;99.90;;;;;;5093250;28;20099;-71
2021/03/21 03:41:44;;;;;;;71.60;35.38;;;4.60;99.90;;;;;;5093961;28;20386;-71
2021/03/21 03:44:19;;;;;;;70.25;35.15;;;4.50;99.90;;;;;;5093339;28;20032;-70
2021/03/21 03:46:52;;;;;;;69.55;35.00;;;4.50;99.90;;;;;;5075540;28;20032;-70
2021/03/21 03:49:36;;;;;;;68.80;35.35;;;4.40;99.90;;;;;;5093845;28;20035;-73
2021/03/21 03:52:19;;;;;;;67.10;35.50;;;4.40;99.90;;;;;;5092989;28;20031;-73
2021/03/21 03:54:56;;;;;;;72.60;35.85;;;4.50;99.90;;;;;;5093643;28;20351;-72
2021/03/21 03:57:50;;;;;;;70.25;35.72;;;4.50;99.90;;;;;;5093292;28;20023;-71
2021/03/21 04:00:21;;;;;;;70.25;36.03;;;4.50;99.90;;;;;;5081880;28;20516;-70
2021/03/21 04:02:59;;;;;;;68.95;35.63;;;4.40;99.90;;;;;;5093387;28;20028;-71
2021/03/21 04:05:51;;;;;;;71.85;35.90;;;4.40;99.90;;;;;;5079751;28;20027;-71
2021/03/21 04:08:49;;;;;;;71.55;35.47;;;4.50;99.90;;;;;;5076017;28;20044;-71
2021/03/21 04:11:43;;;;;;;73.65;35.25;;;4.50;99.90;;;;;;5085428;28;20474;-71
2021/03/21 04:14:15;;;;;;;73.03;35.40;;;4.60;99.90;;;;;;5081548;28;20036;-71
2021/03/21 04:16:50;;;;;;;73.45;35.55;;;4.70;99.90;;;;;;5093138;28;20054;-69
2021/03/21 04:19:20;;;;;;;72.05;35.45;;;4.80;99.90;;;;;;5092414;28;20045;-72
2021/03/21 04:22:02;;;;;;;79.20;36.22;;;4.80;99.90;;;;;;5092929;28;20438;-69
2021/03/21 04:24:40;;;;;;;80.65;36.60;;;4.90;99.90;;;;;;5092708;28;20049;-71
2021/03/21 04:27:35;;;;;;;80.70;36.95;;;5.00;99.90;;;;;;5093086;28;20031;-71
2021/03/21 04:30:11;;;;;;;78.97;36.38;;;5.00;99.90;;;;;;5092517;28;20043;-71
2021/03/21 04:32:49;;;;;;;72.90;35.22;;;5.00;99.90;;;;;;5075173;28;20170;-71
2021/03/21 04:35:41;;;;;;;70.55;34.63;;;4.90;99.90;;;;;;5072847;28;20017;-70
2021/03/21 04:38:32;;;;;;;70.28;34.72;;;5.00;99.90;;;;;;5093222;28;20089;-70
2021/03/21 04:41:00;;;;;;;70.53;34.88;;;4.90;99.90;;;;;;5081188;28;20118;-71
2021/03/21 04:43:54;;;;;;;68.88;34.33;;;4.80;99.90;;;;;;5092675;28;20040;-70
2021/03/21 04:46:27;;;;;;;69.63;34.65;;;4.70;99.90;;;;;;5010649;28;20088;-73
2021/03/21 04:48:54;;;;;;;69.90;35.15;;;4.80;99.90;;;;;;5010675;28;20437;-72
2021/03/21 04:51:25;;;;;;;67.38;34.45;;;4.80;99.90;;;;;;5010505;28;20369;-73
2021/03/21 04:53:59;;;;;;;68.32;34.78;;;4.80;99.90;;;;;;4994392;28;20033;-74
2021/03/21 04:57:06;;;;;;;69.70;35.13;;;4.80;99.90;;;;;;5010315;28;20037;-72
2021/03/21 04:59:34;;;;;;;68.85;34.95;;;4.80;99.90;;;;;;4971089;28;20118;-73
2021/03/21 05:02:15;;;;;;;68.47;34.88;;;4.80;99.90;;;;;;4971283;28;20027;-71
2021/03/21 05:04:47;;;;;;;68.82;35.05;;;4.80;99.90;;;;;;4971364;28;20089;-75
2021/03/21 05:07:23;;;;;;;75.68;35.72;;;4.90;99.90;;;;;;4971568;28;20023;-72
2021/03/21 05:09:53;;;;;;;78.40;36.22;;;4.90;99.90;;;;;;4971175;28;20058;-72
2021/03/21 05:12:31;;;;;;;75.55;35.38;;;4.80;99.90;;;;;;4971537;28;20027;-72
2021/03/21 05:15:16;;;;;;;76.82;35.67;;;4.90;99.90;;;;;;4971108;28;20085;-73
2021/03/21 05:17:56;;;;;;;79.57;36.42;;;4.80;99.90;;;;;;4956357;28;20038;-72
2021/03/21 05:20:22;;;;;;;74.32;35.00;;;4.90;99.90;;;;;;4971465;28;20034;-72
2021/03/21 05:23:24;;;;;;;77.13;35.95;;;4.90;99.90;;;;;;5001003;28;20041;-71
2021/03/21 05:26:07;;;;;;;76.35;35.50;;;5.00;99.90;;;;;;5012025;28;20431;-74
2021/03/21 05:29:06;;;;;;;78.25;36.17;;;4.90;99.90;;;;;;5012544;28;20034;-71
2021/03/21 05:31:32;;;;;;;77.60;36.03;;;4.80;99.90;;;;;;5017063;28;20041;-71
2021/03/21 05:34:00;;;;;;;79.32;36.22;;;4.70;99.90;;;;;;5019846;28;20123;-72
2021/03/21 05:36:44;;;;;;;82.32;37.33;;;4.60;99.90;;;;;;5056692;28;20589;-73
2021/03/21 05:39:26;;;;;;;82.90;37.20;;;4.50;99.90;;;;;;5089496;28;20021;-72
2021/03/21 05:42:01;;;;;;;76.45;35.45;;;4.60;99.90;;;;;;5095020;28;20031;-71
2021/03/21 05:45:16;;;;;;;80.75;36.63;;;4.60;99.90;;;;;;5095764;28;20031;-74
2021/03/21 05:48:06;;;;;;;78.38;35.88;;;4.50;99.90;;;;;;5095323;28;20055;-72
2021/03/21 05:50:38;;;;;;;77.28;36.25;;;4.60;99.90;;;;;;5097384;28;20450;-73
2021/03/21 05:53:42;;;;;;;77.60;36.05;;;4.70;99.90;;;;;;5096009;28;20062;-73
2021/03/21 05:56:54;;;;;;;73.55;35.58;;;4.80;99.90;;;;;;5095655;28;20032;-74
2021/03/21 05:59:26;;;;;;;73.80;35.80;;;4.70;99.90;;;;;;5095392;28;20038;-76
2021/03/21 06:02:13;;;;;;;77.25;36.30;;;4.90;99.90;;;;;;5095295;28;20028;-72
2021/03/21 06:04:47;;;;;;;67.43;35.20;;;5.00;99.90;;;;;;5095266;28;20380;-72
2021/03/21 06:07:42;;;;;;;63.92;34.50;;;5.00;99.90;;;;;;5095658;28;20090;-74
2021/03/21 06:10:39;;;;;;;65.80;34.78;;;5.00;99.90;;;;;;5078159;28;20024;-72
2021/03/21 06:13:38;;;;;;;69.25;35.17;;;4.90;99.90;;;;;;5095384;28;20032;-72
2021/03/21 06:16:28;;;;;;;70.10;35.28;;;4.80;99.90;;;;;;5099504;28;20028;-72
2021/03/21 06:19:12;;;;;;;69.55;34.72;;;4.70;99.90;;;;;;5081429;28;20032;-73
2021/03/21 06:22:03;;;;;;;69.07;34.67;;;4.80;99.90;;;;;;5076631;28;20043;-73
2021/03/21 06:24:54;;;;;;;64.35;34.75;;;4.80;99.90;;;;;;5085199;28;20139;-72
2021/03/21 06:27:35;;;;;;;63.25;34.33;;;4.90;99.90;;;;;;5094724;28;20055;-71
2021/03/21 06:30:19;;;;;;;69.28;35.65;;;4.80;99.90;;;;;;5091698;28;20069;-72
2021/03/21 06:33:18;;;;;;;71.05;35.65;;;4.70;99.90;;;;;;5078038;28;20421;-70
2021/03/21 06:35:43;;;;;;;69.72;35.35;;;4.70;99.90;;;;;;5088574;28;20104;-71
2021/03/21 06:38:15;;;;;;;71.72;36.08;;;4.80;99.90;;;;;;5083507;28;20112;-72
2021/03/21 06:40:59;;;;;;;67.72;35.50;;;4.80;99.90;;;;;;5091694;28;20028;-72
2021/03/21 06:43:33;;;;;;;;;;;4.80;99.90;;;;;;5074808;28;20040;-73
2021/03/21 06:46:37;;;;;;;68.45;35.00;;;4.80;99.90;;;;;;5089291;28;19983;-71
2021/03/21 06:49:43;;;;;;;75.18;36.10;;;4.80;99.90;;;;;;5059644;28;20064;-71
2021/03/21 06:52:22;;;;;;;74.25;35.75;;;4.90;99.90;;;;;;5052247;28;20036;-71
2021/03/21 06:55:03;;;;;;;77.88;35.95;;;4.90;99.90;;;;;;5094264;28;20032;-71
2021/03/21 06:58:15;;;;;;;77.97;35.88;;;5.00;99.90;;;;;;5097098;28;20039;-70
2021/03/21 07:01:08;;;;;;;79.22;36.33;;;5.00;99.90;;;;;;5086089;28;20073;-71
2021/03/21 07:03:59;;;;;;;78.53;36.08;;;5.10;99.90;;;;;;5094036;28;20393;-72
2021/03/21 07:06:45;;;;;;;77.47;35.95;;;5.20;99.90;;;;;;5093957;28;20024;-72
2021/03/21 07:09:38;;;;;;;73.95;35.08;;;5.30;99.90;;;;;;5094162;28;20024;-72
2021/03/21 07:12:34;;;;;;;73.85;35.25;;;5.20;99.90;;;;;;5094296;28;20023;-73
2021/03/21 07:15:11;;;;;;;75.20;35.85;;;5.20;99.90;;;;;;5093955;28;20051;-73
2021/03/21 07:18:14;;;;;;;74.63;35.70;;;5.10;99.90;;;;;;5093968;28;20035;-75
2021/03/21 07:21:02;;;;;;;74.53;35.38;;;5.10;99.90;;;;;;5080284;28;20428;-73
2021/03/21 07:23:49;;;;;;;72.63;34.53;;;5.10;99.90;;;;;;5093615;28;20362;-73
2021/03/21 07:26:28;;;;;;;74.20;35.53;;;5.20;99.90;;;;;;5093052;28;20385;-71
2021/03/21 07:29:31;;;;;;;73.55;35.55;;;5.20;99.90;;;;;;5090248;28;20381;-71
2021/03/21 07:32:27;;;;;;;73.22;35.00;;;5.20;99.90;;;;;;5089531;28;20032;-71
2021/03/21 07:35:24;;;;;;;74.60;35.28;;;5.10;99.90;;;;;;5082219;28;20040;-69
2021/03/21 07:38:21;;;;;;;75.30;35.88;;;4.80;99.90;;;;;;5083236;28;20474;-73
2021/03/21 07:41:22;;;;;;;71.43;34.28;;;4.70;99.90;;;;;;5089467;28;20032;-72
2021/03/21 07:44:21;;;;;;;75.78;35.65;;;4.70;99.90;;;;;;4971703;28;20065;-72
2021/03/21 07:47:15;;;;;;;75.63;35.45;;;4.80;99.90;;;;;;4980097;28;20038;-70
2021/03/21 07:50:02;;;;;;;75.10;35.13;;;4.90;99.90;;;;;;5000560;28;20023;-69
2021/03/21 07:52:40;;;;;;;75.60;35.88;;;5.00;99.90;;;;;;4991848;28;20034;-72
2021/03/21 07:55:30;;;;;;;73.88;34.88;;;5.10;99.90;;;;;;4995878;28;20592;-71
2021/03/21 07:58:20;;;;;;;74.53;34.97;;;5.00;99.90;;;;;;4984259;28;20531;-68
2021/03/21 08:00:49;;;;;;;72.50;34.45;;;5.10;99.90;;;;;;4990902;28;20038;-69
2021/03/21 08:03:25;;;;;;;74.90;35.67;;;5.20;99.90;;;;;;4989407;28;20049;-70
2021/03/21 08:05:54;;;;;;;70.78;35.10;;;5.20;99.90;;;;;;4981303;28;20472;-73
2021/03/21 08:08:29;;;;;;;69.30;34.17;;;5.10;99.90;;;;;;4988641;28;20031;-69
2021/03/21 08:11:00;;;;;;;74.47;35.63;;;5.20;99.90;;;;;;4974369;28;20069;-70
2021/03/21 08:13:46;;;;;;;69.93;34.47;;;5.20;99.90;;;;;;4974964;28;20479;-71
2021/03/21 08:16:22;;;;;;;69.05;34.85;;;5.30;99.90;;;;;;4982903;28;20057;-69
2021/03/21 08:18:49;;;;;;;63.00;33.88;;;5.40;99.90;;;;;;4989534;28;20034;-69
2021/03/21 08:21:26;;;;;;;63.50;34.08;;;5.50;99.90;;;;;;5047321;28;20036;-70
2021/03/21 08:23:52;;;;;;;60.53;33.33;;;5.50;99.90;;;;;;5089654;28;20072;-70
2021/03/21 08:26:26;;;;;;;63.15;33.85;;;5.50;99.90;;;;;;5072729;28;20500;-73
2021/03/21 08:29:04;;;;;;;62.10;33.55;;;5.60;99.90;;;;;;5089434;28;20042;-72
2021/03/21 08:31:39;;;;;;;69.05;34.70;;;5.60;99.90;;;;;;5088863;28;20028;-72
2021/03/21 08:34:26;;;;;;;61.20;33.58;;;5.50;99.90;;;;;;5073217;28;20028;-72
2021/03/21 08:36:52;;;;;;;61.53;33.53;;;5.60;99.90;;;;;;5088254;28;20355;-71
2021/03/21 08:39:28;;;;;;;64.60;33.72;;;5.60;99.90;;;;;;5090234;28;20028;-73
2021/03/21 08:41:58;;;;;;;66.63;33.85;;;5.60;99.90;;;;;;5081236;28;20454;-70
2021/03/21 08:44:48;;;;;;;66.45;33.80;;;5.70;99.90;;;;;;5091050;28;20132;-71
2021/03/21 08:47:23;;;;;;;65.13;33.55;;;5.70;99.90;;;;;;5090350;28;20068;-70
2021/03/21 08:49:51;;;;;;;66.82;33.80;;;5.70;99.90;;;;;;5091131;28;20031;-69
2021/03/21 08:52:31;;;;;;;65.63;34.10;;;5.60;99.90;;;;;;5089201;28;20024;-71
2021/03/21 08:54:59;;;;;;;63.72;33.70;;;5.60;99.90;;;;;;5066556;28;20032;-70
2021/03/21 08:57:32;;;;;;;67.88;34.15;;;5.60;99.90;;;;;;5091239;28;20432;-70
2021/03/21 09:00:27;;;;;;;62.53;33.15;;;5.60;99.90;;;;;;5067534;28;20032;-71
2021/03/21 09:02:53;;;;;;;66.13;33.90;;;5.70;99.90;;;;;;5066292;28;20096;-72
2021/03/21 09:05:22;;;;;;;61.85;33.28;;;5.70;99.90;;;;;;5094171;28;20531;-72
2021/03/21 09:07:51;;;;;;;57.70;32.78;;;5.70;99.90;;;;;;5094843;28;20039;-73
2021/03/21 09:10:23;;;;;;;63.63;33.45;;;5.70;99.90;;;;;;5095760;28;20385;-71
2021/03/21 09:13:10;;;;;;;60.17;33.13;;;5.80;99.90;;;;;;5097522;28;20028;-71
2021/03/21 09:15:45;;;;;;;62.47;33.47;;;5.70;99.90;;;;;;5068414;28;20127;-70
2021/03/21 09:18:19;;;;;;;65.82;33.90;;;5.60;99.90;;;;;;5090559;28;20107;-73
2021/03/21 09:21:15;;;;;;;61.38;33.65;;;5.50;99.90;;;;;;5083981;28;20490;-73
2021/03/21 09:23:59;;;;;;;57.92;32.83;;;5.50;99.90;;;;;;5093775;28;20044;-71
2021/03/21 09:26:51;;;;;;;66.85;34.05;;;5.60;99.90;;;;;;5088426;28;20370;-69
2021/03/21 09:29:29;;;;;;;66.22;33.97;;;5.60;99.90;;;;;;5076105;28;20029;-70
2021/03/21 09:32:24;;;;;;;63.47;33.80;;;5.60;99.90;;;;;;5089894;28;20392;-70
2021/03/21 09:34:58;;;;;;;59.80;33.80;;;5.80;99.90;;;;;;5082241;28;20063;-71
2021/03/21 09:37:27;;;;;;;57.90;33.05;;;5.80;99.90;;;;;;5081270;28;20078;-71
2021/03/21 09:40:14;;;;;;;56.42;32.70;;;5.80;99.90;;;;;;5087575;28;20103;-76
2021/03/21 09:42:40;;;;;;;55.65;32.95;;;5.80;99.90;;;;;;5095112;28;20382;-70
2021/03/21 09:45:06;;;;;;;57.72;32.65;;;6.00;99.90;;;;;;5077700;28;20043;-71
2021/03/21 09:47:58;;;;;;;58.83;32.80;;;6.00;99.90;;;;;;5095679;28;20030;-75
2021/03/21 09:51:00;;;;;;;55.10;32.58;;;6.10;99.90;;;;;;5083199;28;20660;-73
2021/03/21 09:53:46;;;;;;;57.33;32.63;;;6.10;99.90;;;;;;5081055;28;20056;-74
2021/03/21 09:56:12;;;;;;;54.78;31.90;;;6.10;99.90;;;;;;5090580;28;20409;-72
2021/03/21 09:59:25;;;;;;;54.78;32.55;;;6.00;99.90;;;;;;5077568;28;20024;-70
2021/03/21 10:02:11;;;;;;;53.65;32.20;;;6.00;99.90;;;;;;5062917;28;20040;-71
2021/03/21 10:05:02;;;;;;;52.58;32.08;;;5.90;99.90;;;;;;5089105;28;20700;-70
2021/03/21 10:07:51;;;;;;;52.38;31.95;;;5.90;99.90;;;;;;5085618;28;20546;-69
2021/03/21 10:10:35;;;;;;;56.42;32.92;;;5.90;99.90;;;;;;5094825;28;20169;-69
2021/03/21 10:13:00;;;;;;;56.35;33.13;;;5.90;99.90;;;;;;5095077;28;20020;-69
2021/03/21 10:15:27;;;;;;;54.13;32.47;;;5.90;99.90;;;;;;5095244;28;20020;-69
2021/03/21 10:18:02;;;;;;;53.70;32.13;;;5.80;99.90;;;;;;5094571;28;20031;-72
2021/03/21 10:20:52;;;;;;;52.65;31.85;;;5.80;99.90;;;;;;5072178;28;20032;-69
2021/03/21 10:23:18;;;;;;;52.53;32.10;;;5.70;99.90;;;;;;5088561;28;20043;-70
2021/03/21 10:25:44;;;;;;;51.78;31.77;;;5.60;99.90;;;;;;5095414;28;20031;-73
2021/03/21 10:28:35;;;;;;;52.15;31.88;;;5.60;99.90;;;;;;5095126;28;20103;-70
2021/03/21 10:31:22;;;;;;;51.53;31.50;;;5.60;99.90;;;;;;5082257;28;20024;-69
2021/03/21 10:33:49;;;;;;;52.22;31.85;;;5.70;99.90;;;;;;5094892;28;20052;-69
2021/03/21 10:36:40;;;;;;;54.17;32.53;;;5.80;99.90;;;;;;5093522;28;20056;-70
2021/03/21 10:39:23;;;;;;;56.58;32.75;;;5.80;99.90;;;;;;5073681;28;20416;-70
2021/03/21 10:42:07;;;;;;;53.58;31.90;;;5.80;99.90;;;;;;5096406;28;20022;-72
2021/03/21 10:44:33;;;;;;;55.40;32.33;;;6.00;99.90;;;;;;5094393;28;20089;-69
2021/03/21 10:47:05;;;;;;;52.35;31.98;;;6.00;99.90;;;;;;5089689;28;20373;-69
2021/03/21 10:49:56;;;;;;;51.03;31.60;;;6.10;99.90;;;;;;5087351;28;20028;-71
2021/03/21 10:52:29;;;;;;;50.13;31.00;;;6.00;99.90;;;;;;5060566;28;20053;-73
2021/03/21 10:55:11;;;;;;;53.40;31.80;;;6.00;99.90;;;;;;5072997;28;20050;-69
2021/03/21 10:57:53;;;;;;;56.00;33.00;;;5.90;99.90;;;;;;5061870;28;20048;-70
2021/03/21 11:00:25;;;;;;;51.25;31.60;;;5.80;99.90;;;;;;5061439;28;20051;-71
2021/03/21 11:03:05;;;;;;;50.83;31.63;;;5.80;99.90;;;;;;5094295;28;20039;-69
2021/03/21 11:05:44;;;;;;;55.03;32.60;;;5.80;99.90;;;;;;5088437;28;20023;-70
2021/03/21 11:08:13;;;;;;;60.75;33.30;;;5.80;99.90;;;;;;5085247;28;20029;-71
2021/03/21 11:10:54;;;;;;;61.20;33.25;;;5.70;99.90;;;;;;5089924;28;20055;-71
2021/03/21 11:13:33;;;;;;;60.88;33.45;;;5.80;99.90;;;;;;5090076;28;20032;-71
2021/03/21 11:16:09;;;;;;;61.90;33.78;;;5.90;99.90;;;;;;5092588;28;20016;-69
2021/03/21 11:18:35;;;;;;;59.67;33.30;;;6.00;99.90;;;;;;5092685;28;20056;-71
2021/03/21 11:21:16;;;;;;;60.05;33.28;;;6.00;99.90;;;;;;5074687;28;20016;-73
2021/03/21 11:23:48;;;;;;;61.38;33.75;;;6.00;99.90;;;;;;5092989;28;20040;-73
2021/03/21 11:26:29;;;;;;;65.28;34.25;;;5.90;99.90;;;;;;5092400;28;20032;-76
2021/03/21 11:29:04;;;;;;;65.60;33.67;;;5.90;99.90;;;;;;5094718;28;20024;-72
2021/03/21 11:31:41;;;;;;;64.35;34.38;;;5.80;99.90;;;;;;5078392;28;20423;-74
2021/03/21 11:34:29;;;;;;;62.33;33.47;;;5.90;99.90;;;;;;5091281;28;20043;-75
2021/03/21 11:37:32;;;;;;;61.75;33.90;;;6.00;99.90;;;;;;5065199;28;20036;-73
2021/03/21 11:40:08;;;;;;;62.42;34.25;;;6.00;99.90;;;;;;5079258;28;20036;-74
2021/03/21 11:42:35;;;;;;;60.25;33.58;;;6.00;99.90;;;;;;5090639;28;20440;-74
2021/03/21 11:45:25;;;;;;;60.20;33.85;;;6.10;99.90;;;;;;5091581;28;20065;-75
2021/03/21 11:47:57;;;;;;;56.80;33.03;;;6.10;99.90;;;;;;5071306;28;20355;-71
2021/03/21 11:50:31;;;;;;;57.30;32.92;;;6.00;99.90;;;;;;5091624;28;20062;-71
2021/03/21 11:52:59;;;;;;;56.50;32.88;;;6.00;99.90;;;;;;5091068;28;20028;-74
2021/03/21 11:55:29;;;;;;;53.20;31.95;;;6.10;99.90;;;;;;5088654;28;20055;-72
2021/03/21 11:58:07;;;;;;;54.03;32.35;;;6.10;99.90;;;;;;5073545;28;20111;-70
2021/03/21 12:00:38;;;;;;;55.00;32.58;;;6.20;99.90;;;;;;5088583;28;20035;-73
2021/03/21 12:03:20;;;;;;;58.28;32.90;;;6.20;99.90;;;;;;5090867;28;20042;-73
2021/03/21 12:06:04;;;;;;;56.63;32.83;;;6.40;99.90;;;;;;5091439;28;20035;-71
2021/03/21 12:08:41;;;;;;;58.38;33.33;;;6.40;99.90;;;;;;5090077;28;20028;-71
2021/03/21 12:11:25;;;;;;;56.65;32.85;;;6.40;99.90;;;;;;5092231;28;20031;-70
2021/03/21 12:13:52;;;;;;;;;;;6.40;99.90;;;;;;5092908;28;20107;-74
2021/03/21 12:16:37;;;;;;;56.03;32.80;;;6.40;99.90;;;;;;5083442;28;19912;-72
2021/03/21 12:19:11;;;;;;;57.22;32.90;;;6.40;99.90;;;;;;5085772;28;20032;-71
2021/03/21 12:21:38;;;;;;;54.10;32.25;;;6.40;99.90;;;;;;5085171;28;20427;-74
2021/03/21 12:24:12;;;;;;;55.45;32.30;;;6.40;99.90;;;;;;5078823;28;20033;-72
2021/03/21 12:26:45;;;;;;;51.13;31.45;;;6.40;99.90;;;;;;5085302;28;20041;-71
2021/03/21 12:29:22;;;;;;;55.75;32.50;;;6.50;99.90;;;;;;5091503;28;20020;-70
2021/03/21 12:31:50;;;;;;;52.42;32.03;;;6.50;99.90;;;;;;5091294;28;20077;-73
2021/03/21 12:34:42;;;;;;;58.30;33.05;;;6.40;99.90;;;;;;5099229;28;20036;-73
2021/03/21 12:37:15;;;;;;;57.42;32.90;;;6.40;99.90;;;;;;5059994;28;20035;-72
2021/03/21 12:39:45;;;;;;;51.45;31.13;;;6.40;99.90;;;;;;5096362;28;20059;-72
2021/03/21 12:42:26;;;;;;;56.33;32.00;;;6.40;99.90;;;;;;5096209;28;20028;-72
2021/03/21 12:45:10;;;;;;;62.00;33.28;;;6.20;99.90;;;;;;5082166;28;20425;-69
2021/03/21 12:47:38;;;;;;;;;;;6.10;99.90;;;;;;5090556;28;20470;-74
2021/03/21 12:50:25;;;;;;;65.10;34.15;;;6.10;99.90;;;;;;5084937;28;19904;-72
2021/03/21 12:52:51;;;;;;;46.00;30.25;;;6.10;99.90;;;;;;5089950;28;20028;-69
2021/03/21 12:55:18;;;;;;;69.57;34.55;;;6.10;99.90;;;;;;5090420;28;20433;-69
2021/03/21 12:57:44;;;;;;;67.03;33.95;;;6.00;99.90;;;;;;5070476;28;20020;-71
2021/03/21 13:00:17;;;;;;;71.63;35.45;;;5.90;99.90;;;;;;5082861;28;20035;-69
2021/03/21 13:02:42;;;;;;;73.35;35.50;;;5.80;99.90;;;;;;5070219;28;20462;-70
2021/03/21 13:05:38;;;;;;;71.82;34.88;;;5.80;99.90;;;;;;5065760;28;20086;-71
2021/03/21 13:08:06;;;;;;;72.47;34.58;;;5.80;99.90;;;;;;5088580;28;20037;-74
2021/03/21 13:10:33;;;;;;;70.10;34.78;;;5.80;99.90;;;;;;5089777;28;20050;-71
2021/03/21 13:13:09;;;;;;;74.22;35.42;;;5.90;99.90;;;;;;5085120;28;20025;-73
2021/03/21 13:15:36;;;;;;;73.93;35.58;;;5.90;99.90;;;;;;5091605;28;20031;-71
2021/03/21 13:18:03;;;;;;;73.90;35.40;;;6.00;99.90;;;;;;5059202;28;20024;-72
2021/03/21 13:20:29;;;;;;;74.10;35.92;;;6.00;99.90;;;;;;5081817;28;20035;-73
2021/03/21 13:22:55;;;;;;;72.65;35.70;;;6.20;99.90;;;;;;5094875;28;20052;-72
2021/03/21 13:25:25;;;;;;;68.95;34.58;;;6.20;99.90;;;;;;5094522;28;20114;-70
2021/03/21 13:27:56;;;;;;;70.47;34.63;;;6.20;99.90;;;;;;5093971;28;20131;-77
2021/03/21 13:30:25;;;;;;;69.63;34.92;;;6.20;99.90;;;;;;5092431;28;20420;-73
2021/03/21 13:32:52;;;;;;;69.45;34.22;;;6.20;99.90;;;;;;5095357;28;20024;-77